sensor_id;sensor_type;location;lat;lon;timestamp;temperature;humidity
7292;DHT22;3687;47.648;8.204;2022-07-01T00:00:21;13.20;99.90
7292;DHT22;3687;47.648;8.204;2022-07-01T00:02:46;13.10;99.90
7292;DHT22;3687;47.648;8.204;2022-07-01T00:05:12;13.10;99.90
7292;DHT22;3687;47.648;8.204;2022-07-01T00:07:38;13.20;99.90
7292;DHT22;3687;47.648;8.204;2022-07-01T00:10:04;13.20;99.90
7292;DHT22;3687;47.648;8.204;2022-07-01T00:12:30;13.20;99.90
7292;DHT22;3687;47.648;8.204;2022-07-01T00:14:55;13.10;99.90
7292;DHT22;3687;47.648;8.204;2022-07-01T00:17:21;13.10;99.90
7292;DHT22;3687;47.648;8.204;2022-07-01T00:19:47;13.20;99.90
7292;DHT22;3687;47.648;8.204;2022-07-01T00:22:13;13.20;99.90
7292;DHT22;3687;47.648;8.204;2022-07-01T00:24:39;13.20;99.90
7292;DHT22;3687;47.648;8.204;2022-07-01T00:27:04;13.20;99.90
7292;DHT22;3687;47.648;8.204;2022-07-01T00:29:30;13.30;99.90
7292;DHT22;3687;47.648;8.204;2022-07-01T00:31:58;13.20;99.90
7292;DHT22;3687;47.648;8.204;2022-07-01T00:34:23;13.20;99.90
7292;DHT22;3687;47.648;8.204;2022-07-01T00:36:49;13.20;99.90
7292;DHT22;3687;47.648;8.204;2022-07-01T00:39:15;13.20;99.90
7292;DHT22;3687;47.648;8.204;2022-07-01T00:41:41;13.30;99.90
7292;DHT22;3687;47.648;8.204;2022-07-01T00:44:18;13.30;99.90
7292;DHT22;3687;47.648;8.204;2022-07-01T00:46:44;13.40;99.90
7292;DHT22;3687;47.648;8.204;2022-07-01T00:49:11;13.30;99.90
7292;DHT22;3687;47.648;8.204;2022-07-01T00:51:37;13.30;99.90
7292;DHT22;3687;47.648;8.204;2022-07-01T00:54:02;13.30;99.90
7292;DHT22;3687;47.648;8.204;2022-07-01T00:56:28;13.30;99.90
7292;DHT22;3687;47.648;8.204;2022-07-01T00:58:55;13.20;99.90
7292;DHT22;3687;47.648;8.204;2022-07-01T01:01:21;13.30;99.90
7292;DHT22;3687;47.648;8.204;2022-07-01T01:03:48;13.40;99.90
7292;DHT22;3687;47.648;8.204;2022-07-01T01:06:15;13.50;99.90
7292;DHT22;3687;47.648;8.204;2022-07-01T01:08:41;13.60;99.90
7292;DHT22;3687;47.648;8.204;2022-07-01T01:11:07;13.60;99.90
7292;DHT22;3687;47.648;8.204;2022-07-01T01:13:32;13.60;99.90
7292;DHT22;3687;47.648;8.204;2022-07-01T01:15:58;13.50;99.90
7292;DHT22;3687;47.648;8.204;2022-07-01T01:18:24;13.50;99.90
7292;DHT22;3687;47.648;8.204;2022-07-01T01:20:49;13.60;99.90
7292;DHT22;3687;47.648;8.204;2022-07-01T01:23:16;13.60;99.90
7292;DHT22;3687;47.648;8.204;2022-07-01T01:25:42;13.70;99.90
7292;DHT22;3687;47.648;8.204;2022-07-01T01:28:09;13.60;99.90
7292;DHT22;3687;47.648;8.204;2022-07-01T01:30:35;13.60;99.90
7292;DHT22;3687;47.648;8.204;2022-07-01T01:33:01;13.50;99.90
7292;DHT22;3687;47.648;8.204;2022-07-01T01:35:27;13.50;99.90
7292;DHT22;3687;47.648;8.204;2022-07-01T01:37:52;13.50;99.90
7292;DHT22;3687;47.648;8.204;2022-07-01T01:40:18;13.50;99.90
7292;DHT22;3687;47.648;8.204;2022-07-01T01:42:44;13.30;99.90
7292;DHT22;3687;47.648;8.204;2022-07-01T01:45:10;13.30;99.90
7292;DHT22;3687;47.648;8.204;2022-07-01T01:47:36;13.20;99.90
7292;DHT22;3687;47.648;8.204;2022-07-01T01:50:05;13.10;99.90
7292;DHT22;3687;47.648;8.204;2022-07-01T01:52:31;13.10;99.90
7292;DHT22;3687;47.648;8.204;2022-07-01T01:54:56;13.10;99.90
7292;DHT22;3687;47.648;8.204;2022-07-01T01:57:22;13.00;99.90
7292;DHT22;3687;47.648;8.204;2022-07-01T01:59:47;13.00;99.90
7292;DHT22;3687;47.648;8.204;2022-07-01T02:02:13;12.90;99.90
7292;DHT22;3687;47.648;8.204;2022-07-01T02:04:39;12.90;99.90
7292;DHT22;3687;47.648;8.204;2022-07-01T02:07:04;12.80;99.90
7292;DHT22;3687;47.648;8.204;2022-07-01T02:09:31;12.80;99.90
7292;DHT22;3687;47.648;8.204;2022-07-01T02:11:56;12.80;99.90
7292;DHT22;3687;47.648;8.204;2022-07-01T02:14:22;12.80;99.90
7292;DHT22;3687;47.648;8.204;2022-07-01T02:16:47;12.90;99.90
7292;DHT22;3687;47.648;8.204;2022-07-01T02:19:13;13.00;99.90
7292;DHT22;3687;47.648;8.204;2022-07-01T02:21:38;13.10;99.90
7292;DHT22;3687;47.648;8.204;2022-07-01T02:24:04;13.10;99.90
7292;DHT22;3687;47.648;8.204;2022-07-01T02:26:30;13.20;99.90
7292;DHT22;3687;47.648;8.204;2022-07-01T02:28:56;13.20;99.90
7292;DHT22;3687;47.648;8.204;2022-07-01T02:31:21;13.20;99.90
7292;DHT22;3687;47.648;8.204;2022-07-01T02:33:47;13.20;99.90
7292;DHT22;3687;47.648;8.204;2022-07-01T02:36:13;13.10;99.90
7292;DHT22;3687;47.648;8.204;2022-07-01T02:38:38;13.10;99.90
7292;DHT22;3687;47.648;8.204;2022-07-01T02:41:04;13.10;99.90
7292;DHT22;3687;47.648;8.204;2022-07-01T02:43:29;13.10;99.90
7292;DHT22;3687;47.648;8.204;2022-07-01T02:45:57;13.00;99.90
7292;DHT22;3687;47.648;8.204;2022-07-01T02:48:22;12.90;99.90
7292;DHT22;3687;47.648;8.204;2022-07-01T02:50:48;12.90;99.90
7292;DHT22;3687;47.648;8.204;2022-07-01T02:53:14;12.90;99.90
7292;DHT22;3687;47.648;8.204;2022-07-01T02:55:39;12.90;99.90
7292;DHT22;3687;47.648;8.204;2022-07-01T02:58:05;12.90;99.90
7292;DHT22;3687;47.648;8.204;2022-07-01T03:00:30;12.90;99.90
7292;DHT22;3687;47.648;8.204;2022-07-01T03:02:56;12.90;99.90
7292;DHT22;3687;47.648;8.204;2022-07-01T03:05:22;12.90;99.90
7292;DHT22;3687;47.648;8.204;2022-07-01T03:07:47;12.90;99.90
7292;DHT22;3687;47.648;8.204;2022-07-01T03:10:13;12.90;99.90
7292;DHT22;3687;47.648;8.204;2022-07-01T03:12:39;12.80;99.90
7292;DHT22;3687;47.648;8.204;2022-07-01T03:15:07;12.80;99.90
7292;DHT22;3687;47.648;8.204;2022-07-01T03:17:34;12.80;99.90
7292;DHT22;3687;47.648;8.204;2022-07-01T03:20:00;12.90;99.90
7292;DHT22;3687;47.648;8.204;2022-07-01T03:22:29;12.90;99.90
7292;DHT22;3687;47.648;8.204;2022-07-01T03:24:55;12.90;99.90
7292;DHT22;3687;47.648;8.204;2022-07-01T03:27:22;12.90;99.90
7292;DHT22;3687;47.648;8.204;2022-07-01T03:29:48;12.80;99.90
7292;DHT22;3687;47.648;8.204;2022-07-01T03:32:13;12.80;99.90
7292;DHT22;3687;47.648;8.204;2022-07-01T03:34:45;12.80;99.90
7292;DHT22;3687;47.648;8.204;2022-07-01T03:37:12;12.80;99.90
7292;DHT22;3687;47.648;8.204;2022-07-01T03:39:38;12.70;99.90
7292;DHT22;3687;47.648;8.204;2022-07-01T03:42:05;12.60;99.90
7292;DHT22;3687;47.648;8.204;2022-07-01T03:44:32;12.60;99.90
7292;DHT22;3687;47.648;8.204;2022-07-01T03:46:58;12.50;99.90
7292;DHT22;3687;47.648;8.204;2022-07-01T03:49:24;12.50;99.90
7292;DHT22;3687;47.648;8.204;2022-07-01T03:51:51;12.40;99.90
7292;DHT22;3687;47.648;8.204;2022-07-01T03:54:16;12.40;99.90
7292;DHT22;3687;47.648;8.204;2022-07-01T03:59:24;12.40;99.90
7292;DHT22;3687;47.648;8.204;2022-07-01T04:01:50;12.30;99.90
7292;DHT22;3687;47.648;8.204;2022-07-01T04:04:15;12.30;99.90
7292;DHT22;3687;47.648;8.204;2022-07-01T04:06:42;12.40;99.90
7292;DHT22;3687;47.648;8.204;2022-07-01T04:09:08;12.30;99.90
7292;DHT22;3687;47.648;8.204;2022-07-01T04:11:34;12.30;99.90
7292;DHT22;3687;47.648;8.204;2022-07-01T04:13:59;12.30;99.90
7292;DHT22;3687;47.648;8.204;2022-07-01T04:16:25;12.40;99.90
7292;DHT22;3687;47.648;8.204;2022-07-01T04:18:51;12.40;99.90
7292;DHT22;3687;47.648;8.204;2022-07-01T04:21:17;12.60;99.90
7292;DHT22;3687;47.648;8.204;2022-07-01T04:24:02;12.70;99.90
7292;DHT22;3687;47.648;8.204;2022-07-01T04:26:27;12.70;99.90
7292;DHT22;3687;47.648;8.204;2022-07-01T04:28:54;12.80;99.90
7292;DHT22;3687;47.648;8.204;2022-07-01T04:31:20;12.80;99.90
7292;DHT22;3687;47.648;8.204;2022-07-01T04:33:46;12.70;99.90
7292;DHT22;3687;47.648;8.204;2022-07-01T04:36:12;12.50;99.90
7292;DHT22;3687;47.648;8.204;2022-07-01T04:38:38;12.40;99.90
7292;DHT22;3687;47.648;8.204;2022-07-01T04:41:03;12.30;99.90
7292;DHT22;3687;47.648;8.204;2022-07-01T04:43:47;12.20;99.90
7292;DHT22;3687;47.648;8.204;2022-07-01T04:46:13;12.20;99.90
7292;DHT22;3687;47.648;8.204;2022-07-01T04:48:38;12.20;99.90
7292;DHT22;3687;47.648;8.204;2022-07-01T04:51:05;12.10;99.90
7292;DHT22;3687;47.648;8.204;2022-07-01T04:53:31;12.10;99.90
7292;DHT22;3687;47.648;8.204;2022-07-01T04:55:57;12.10;99.90
7292;DHT22;3687;47.648;8.204;2022-07-01T04:58:23;12.10;99.90
7292;DHT22;3687;47.648;8.204;2022-07-01T05:00:48;12.10;99.90
7292;DHT22;3687;47.648;8.204;2022-07-01T05:03:14;12.10;99.90
7292;DHT22;3687;47.648;8.204;2022-07-01T05:05:40;12.20;99.90
7292;DHT22;3687;47.648;8.204;2022-07-01T05:08:05;12.30;99.90
7292;DHT22;3687;47.648;8.204;2022-07-01T05:10:31;12.30;99.90
7292;DHT22;3687;47.648;8.204;2022-07-01T05:12:57;12.40;99.90
7292;DHT22;3687;47.648;8.204;2022-07-01T05:15:22;12.40;99.90
7292;DHT22;3687;47.648;8.204;2022-07-01T05:17:48;12.60;99.90
7292;DHT22;3687;47.648;8.204;2022-07-01T05:20:31;12.70;99.90
7292;DHT22;3687;47.648;8.204;2022-07-01T05:23:16;12.80;99.90
7292;DHT22;3687;47.648;8.204;2022-07-01T05:25:41;12.80;99.90
7292;DHT22;3687;47.648;8.204;2022-07-01T05:28:07;12.80;99.90
7292;DHT22;3687;47.648;8.204;2022-07-01T05:30:32;12.80;99.90
7292;DHT22;3687;47.648;8.204;2022-07-01T05:32:58;12.80;99.90
7292;DHT22;3687;47.648;8.204;2022-07-01T05:35:23;12.90;99.90
7292;DHT22;3687;47.648;8.204;2022-07-01T05:37:49;12.90;99.90
7292;DHT22;3687;47.648;8.204;2022-07-01T05:40:15;12.90;99.90
7292;DHT22;3687;47.648;8.204;2022-07-01T05:42:40;12.80;99.90
7292;DHT22;3687;47.648;8.204;2022-07-01T05:45:06;12.70;99.90
7292;DHT22;3687;47.648;8.204;2022-07-01T05:47:32;12.80;99.90
7292;DHT22;3687;47.648;8.204;2022-07-01T05:49:58;12.70;99.90
7292;DHT22;3687;47.648;8.204;2022-07-01T05:52:23;12.70;99.90
7292;DHT22;3687;47.648;8.204;2022-07-01T05:54:49;12.70;99.90
7292;DHT22;3687;47.648;8.204;2022-07-01T05:57:14;12.70;99.90
7292;DHT22;3687;47.648;8.204;2022-07-01T05:59:40;12.70;99.90
7292;DHT22;3687;47.648;8.204;2022-07-01T06:02:06;12.80;99.90
7292;DHT22;3687;47.648;8.204;2022-07-01T06:04:31;12.90;99.90
7292;DHT22;3687;47.648;8.204;2022-07-01T06:06:57;12.90;99.90
7292;DHT22;3687;47.648;8.204;2022-07-01T06:09:23;12.80;99.90
7292;DHT22;3687;47.648;8.204;2022-07-01T06:11:48;12.70;99.90
7292;DHT22;3687;47.648;8.204;2022-07-01T06:14:14;12.80;99.90
7292;DHT22;3687;47.648;8.204;2022-07-01T06:16:40;13.00;99.90
7292;DHT22;3687;47.648;8.204;2022-07-01T06:19:05;13.00;99.90
7292;DHT22;3687;47.648;8.204;2022-07-01T06:21:32;13.10;99.90
7292;DHT22;3687;47.648;8.204;2022-07-01T06:23:57;13.00;99.90
7292;DHT22;3687;47.648;8.204;2022-07-01T06:26:23;13.00;99.90
7292;DHT22;3687;47.648;8.204;2022-07-01T06:28:49;13.00;99.90
7292;DHT22;3687;47.648;8.204;2022-07-01T06:31:14;13.00;99.90
7292;DHT22;3687;47.648;8.204;2022-07-01T06:33:40;13.10;99.90
7292;DHT22;3687;47.648;8.204;2022-07-01T06:36:06;13.10;99.90
7292;DHT22;3687;47.648;8.204;2022-07-01T06:38:31;13.10;99.90
7292;DHT22;3687;47.648;8.204;2022-07-01T06:40:57;13.00;99.90
7292;DHT22;3687;47.648;8.204;2022-07-01T06:43:41;12.90;99.90
7292;DHT22;3687;47.648;8.204;2022-07-01T06:46:09;12.90;99.90
7292;DHT22;3687;47.648;8.204;2022-07-01T06:48:35;13.00;99.90
7292;DHT22;3687;47.648;8.204;2022-07-01T06:51:01;13.00;99.90
7292;DHT22;3687;47.648;8.204;2022-07-01T06:53:27;12.90;99.90
7292;DHT22;3687;47.648;8.204;2022-07-01T06:55:53;12.80;99.90
7292;DHT22;3687;47.648;8.204;2022-07-01T06:58:18;12.70;99.90
7292;DHT22;3687;47.648;8.204;2022-07-01T07:00:44;12.70;99.90
7292;DHT22;3687;47.648;8.204;2022-07-01T07:03:10;12.60;99.90
7292;DHT22;3687;47.648;8.204;2022-07-01T07:05:35;12.50;99.90
7292;DHT22;3687;47.648;8.204;2022-07-01T07:08:01;12.50;99.90
7292;DHT22;3687;47.648;8.204;2022-07-01T07:10:26;12.60;99.90
7292;DHT22;3687;47.648;8.204;2022-07-01T07:12:52;12.80;99.90
7292;DHT22;3687;47.648;8.204;2022-07-01T07:15:18;13.00;99.90
7292;DHT22;3687;47.648;8.204;2022-07-01T07:17:45;13.10;99.90
7292;DHT22;3687;47.648;8.204;2022-07-01T07:20:11;13.10;99.90
7292;DHT22;3687;47.648;8.204;2022-07-01T07:22:36;13.00;99.90
7292;DHT22;3687;47.648;8.204;2022-07-01T07:25:02;12.90;99.90
7292;DHT22;3687;47.648;8.204;2022-07-01T07:27:27;12.80;99.90
7292;DHT22;3687;47.648;8.204;2022-07-01T07:29:54;12.90;99.90
7292;DHT22;3687;47.648;8.204;2022-07-01T07:32:19;12.90;99.90
7292;DHT22;3687;47.648;8.204;2022-07-01T07:34:45;12.90;99.90
7292;DHT22;3687;47.648;8.204;2022-07-01T07:37:11;13.00;99.90
7292;DHT22;3687;47.648;8.204;2022-07-01T07:39:36;13.00;99.90
7292;DHT22;3687;47.648;8.204;2022-07-01T07:42:02;13.10;99.90
7292;DHT22;3687;47.648;8.204;2022-07-01T07:44:28;13.20;99.90
7292;DHT22;3687;47.648;8.204;2022-07-01T07:46:54;13.30;99.90
7292;DHT22;3687;47.648;8.204;2022-07-01T07:49:20;13.30;99.90
7292;DHT22;3687;47.648;8.204;2022-07-01T07:51:45;13.30;99.90
7292;DHT22;3687;47.648;8.204;2022-07-01T07:54:11;13.30;99.90
7292;DHT22;3687;47.648;8.204;2022-07-01T07:56:36;13.40;99.90
7292;DHT22;3687;47.648;8.204;2022-07-01T07:59:02;13.50;99.90
7292;DHT22;3687;47.648;8.204;2022-07-01T08:01:28;13.40;99.90
7292;DHT22;3687;47.648;8.204;2022-07-01T08:03:53;13.40;99.90
7292;DHT22;3687;47.648;8.204;2022-07-01T08:06:19;13.30;99.90
7292;DHT22;3687;47.648;8.204;2022-07-01T08:08:44;13.20;99.90
7292;DHT22;3687;47.648;8.204;2022-07-01T08:11:11;13.20;99.90
7292;DHT22;3687;47.648;8.204;2022-07-01T08:13:36;13.10;99.90
7292;DHT22;3687;47.648;8.204;2022-07-01T08:16:02;13.10;99.90
7292;DHT22;3687;47.648;8.204;2022-07-01T08:18:28;13.10;99.90
7292;DHT22;3687;47.648;8.204;2022-07-01T08:20:53;13.10;99.90
7292;DHT22;3687;47.648;8.204;2022-07-01T08:23:23;13.10;99.90
7292;DHT22;3687;47.648;8.204;2022-07-01T08:25:49;13.20;99.90
7292;DHT22;3687;47.648;8.204;2022-07-01T08:28:16;13.40;99.90
7292;DHT22;3687;47.648;8.204;2022-07-01T08:30:42;13.50;99.90
7292;DHT22;3687;47.648;8.204;2022-07-01T08:33:08;13.70;99.90
7292;DHT22;3687;47.648;8.204;2022-07-01T08:35:33;13.70;99.90
7292;DHT22;3687;47.648;8.204;2022-07-01T08:37:59;13.60;99.90
7292;DHT22;3687;47.648;8.204;2022-07-01T08:40:26;13.60;99.90
7292;DHT22;3687;47.648;8.204;2022-07-01T08:42:58;13.60;99.90
7292;DHT22;3687;47.648;8.204;2022-07-01T08:45:26;13.70;99.90
7292;DHT22;3687;47.648;8.204;2022-07-01T08:47:55;13.80;99.90
7292;DHT22;3687;47.648;8.204;2022-07-01T08:50:26;13.70;99.90
7292;DHT22;3687;47.648;8.204;2022-07-01T08:52:52;13.60;99.90
7292;DHT22;3687;47.648;8.204;2022-07-01T08:55:19;13.50;99.90
7292;DHT22;3687;47.648;8.204;2022-07-01T08:57:45;13.50;99.90
7292;DHT22;3687;47.648;8.204;2022-07-01T09:00:11;13.40;99.90
7292;DHT22;3687;47.648;8.204;2022-07-01T09:05:20;13.50;99.90
7292;DHT22;3687;47.648;8.204;2022-07-01T09:07:47;13.60;99.90
7292;DHT22;3687;47.648;8.204;2022-07-01T09:10:15;13.90;99.90
7292;DHT22;3687;47.648;8.204;2022-07-01T09:12:43;14.30;99.90
7292;DHT22;3687;47.648;8.204;2022-07-01T09:15:30;14.50;99.90
7292;DHT22;3687;47.648;8.204;2022-07-01T09:18:12;14.50;99.90
7292;DHT22;3687;47.648;8.204;2022-07-01T09:20:42;14.40;99.90
7292;DHT22;3687;47.648;8.204;2022-07-01T09:23:11;14.30;99.90
7292;DHT22;3687;47.648;8.204;2022-07-01T09:25:38;14.50;99.90
7292;DHT22;3687;47.648;8.204;2022-07-01T09:28:06;14.50;99.90
7292;DHT22;3687;47.648;8.204;2022-07-01T09:30:32;14.60;99.90
7292;DHT22;3687;47.648;8.204;2022-07-01T09:33:10;14.80;99.90
7292;DHT22;3687;47.648;8.204;2022-07-01T09:35:36;14.90;99.90
7292;DHT22;3687;47.648;8.204;2022-07-01T09:38:03;14.80;99.90
7292;DHT22;3687;47.648;8.204;2022-07-01T09:40:49;14.70;99.90
7292;DHT22;3687;47.648;8.204;2022-07-01T09:43:19;14.80;99.90
7292;DHT22;3687;47.648;8.204;2022-07-01T09:46:02;14.90;99.90
7292;DHT22;3687;47.648;8.204;2022-07-01T09:51:06;15.10;99.90
7292;DHT22;3687;47.648;8.204;2022-07-01T09:53:32;15.10;99.90
7292;DHT22;3687;47.648;8.204;2022-07-01T09:55:58;15.10;99.90
7292;DHT22;3687;47.648;8.204;2022-07-01T09:58:24;15.10;99.90
7292;DHT22;3687;47.648;8.204;2022-07-01T10:00:52;15.30;99.90
7292;DHT22;3687;47.648;8.204;2022-07-01T10:03:18;15.40;99.90
7292;DHT22;3687;47.648;8.204;2022-07-01T10:13:36;16.10;99.90
7292;DHT22;3687;47.648;8.204;2022-07-01T10:16:03;15.90;99.90
7292;DHT22;3687;47.648;8.204;2022-07-01T10:18:29;16.00;99.90
7292;DHT22;3687;47.648;8.204;2022-07-01T10:20:56;16.20;99.90
7292;DHT22;3687;47.648;8.204;2022-07-01T10:23:28;16.10;99.90
7292;DHT22;3687;47.648;8.204;2022-07-01T10:26:02;16.20;99.90
7292;DHT22;3687;47.648;8.204;2022-07-01T10:31:13;16.40;99.90
7292;DHT22;3687;47.648;8.204;2022-07-01T10:33:56;16.70;99.90
7292;DHT22;3687;47.648;8.204;2022-07-01T10:41:33;16.80;99.90
7292;DHT22;3687;47.648;8.204;2022-07-01T10:44:02;16.80;99.90
7292;DHT22;3687;47.648;8.204;2022-07-01T10:49:16;17.60;99.90
7292;DHT22;3687;47.648;8.204;2022-07-01T10:54:11;18.70;99.90
7292;DHT22;3687;47.648;8.204;2022-07-01T10:56:41;18.50;99.90
7292;DHT22;3687;47.648;8.204;2022-07-01T10:59:07;19.10;99.90
7292;DHT22;3687;47.648;8.204;2022-07-01T11:01:33;20.00;99.90
7292;DHT22;3687;47.648;8.204;2022-07-01T11:03:59;20.70;99.90
7292;DHT22;3687;47.648;8.204;2022-07-01T11:06:26;21.00;99.90
7292;DHT22;3687;47.648;8.204;2022-07-01T11:08:51;20.90;99.90
7292;DHT22;3687;47.648;8.204;2022-07-01T11:11:18;21.10;99.90
7292;DHT22;3687;47.648;8.204;2022-07-01T11:13:45;20.90;99.90
7292;DHT22;3687;47.648;8.204;2022-07-01T11:16:10;21.30;99.90
7292;DHT22;3687;47.648;8.204;2022-07-01T11:18:36;21.80;99.90
7292;DHT22;3687;47.648;8.204;2022-07-01T11:21:03;21.50;99.90
7292;DHT22;3687;47.648;8.204;2022-07-01T11:23:29;20.80;99.90
7292;DHT22;3687;47.648;8.204;2022-07-01T11:25:55;20.30;99.90
7292;DHT22;3687;47.648;8.204;2022-07-01T11:28:20;20.40;99.90
7292;DHT22;3687;47.648;8.204;2022-07-01T11:30:46;19.90;99.90
7292;DHT22;3687;47.648;8.204;2022-07-01T11:33:11;19.90;99.90
7292;DHT22;3687;47.648;8.204;2022-07-01T11:35:37;20.20;99.90
7292;DHT22;3687;47.648;8.204;2022-07-01T11:38:23;20.40;99.90
7292;DHT22;3687;47.648;8.204;2022-07-01T11:41:19;21.90;99.90
7292;DHT22;3687;47.648;8.204;2022-07-01T11:43:45;23.10;99.90
7292;DHT22;3687;47.648;8.204;2022-07-01T11:46:10;23.30;99.90
7292;DHT22;3687;47.648;8.204;2022-07-01T11:48:47;23.10;99.90
7292;DHT22;3687;47.648;8.204;2022-07-01T11:51:20;23.00;99.90
7292;DHT22;3687;47.648;8.204;2022-07-01T11:53:51;22.70;99.90
7292;DHT22;3687;47.648;8.204;2022-07-01T11:58:55;22.60;99.90
7292;DHT22;3687;47.648;8.204;2022-07-01T12:01:29;22.40;99.90
7292;DHT22;3687;47.648;8.204;2022-07-01T12:04:02;22.50;99.90
7292;DHT22;3687;47.648;8.204;2022-07-01T12:06:28;22.20;99.90
7292;DHT22;3687;47.648;8.204;2022-07-01T12:08:54;21.40;99.90
7292;DHT22;3687;47.648;8.204;2022-07-01T12:11:23;21.30;99.90
7292;DHT22;3687;47.648;8.204;2022-07-01T12:13:49;21.20;99.90
7292;DHT22;3687;47.648;8.204;2022-07-01T12:16:15;21.20;99.90
7292;DHT22;3687;47.648;8.204;2022-07-01T12:18:58;21.30;99.90
7292;DHT22;3687;47.648;8.204;2022-07-01T12:21:27;21.30;99.90
7292;DHT22;3687;47.648;8.204;2022-07-01T12:24:12;22.30;99.90
7292;DHT22;3687;47.648;8.204;2022-07-01T12:26:50;23.60;99.80
7292;DHT22;3687;47.648;8.204;2022-07-01T12:29:18;24.60;97.80
7292;DHT22;3687;47.648;8.204;2022-07-01T12:32:03;24.30;97.10
7292;DHT22;3687;47.648;8.204;2022-07-01T12:34:41;24.10;98.10
7292;DHT22;3687;47.648;8.204;2022-07-01T12:37:12;23.70;97.30
7292;DHT22;3687;47.648;8.204;2022-07-01T12:39:59;23.50;98.00
7292;DHT22;3687;47.648;8.204;2022-07-01T12:42:35;22.80;97.90
7292;DHT22;3687;47.648;8.204;2022-07-01T12:45:06;23.40;97.90
7292;DHT22;3687;47.648;8.204;2022-07-01T12:47:37;23.50;97.70
7292;DHT22;3687;47.648;8.204;2022-07-01T12:52:35;24.30;96.00
7292;DHT22;3687;47.648;8.204;2022-07-01T12:55:19;24.70;95.50
7292;DHT22;3687;47.648;8.204;2022-07-01T12:57:53;24.20;95.80
7292;DHT22;3687;47.648;8.204;2022-07-01T13:00:21;23.90;95.20
7292;DHT22;3687;47.648;8.204;2022-07-01T13:02:47;23.40;95.30
7292;DHT22;3687;47.648;8.204;2022-07-01T13:05:13;23.10;95.20
7292;DHT22;3687;47.648;8.204;2022-07-01T13:07:39;22.10;96.10
7292;DHT22;3687;47.648;8.204;2022-07-01T13:10:05;21.60;97.00
7292;DHT22;3687;47.648;8.204;2022-07-01T13:12:31;21.40;97.90
7292;DHT22;3687;47.648;8.204;2022-07-01T13:14:57;23.00;97.10
7292;DHT22;3687;47.648;8.204;2022-07-01T13:17:24;23.60;95.80
7292;DHT22;3687;47.648;8.204;2022-07-01T13:19:49;23.40;95.90
7292;DHT22;3687;47.648;8.204;2022-07-01T13:22:15;23.70;96.20
7292;DHT22;3687;47.648;8.204;2022-07-01T13:24:40;23.30;95.90
7292;DHT22;3687;47.648;8.204;2022-07-01T13:27:06;23.10;95.70
7292;DHT22;3687;47.648;8.204;2022-07-01T13:29:33;22.80;96.30
7292;DHT22;3687;47.648;8.204;2022-07-01T13:31:58;23.20;95.90
7292;DHT22;3687;47.648;8.204;2022-07-01T13:34:24;23.20;95.40
7292;DHT22;3687;47.648;8.204;2022-07-01T13:36:50;22.90;95.60
7292;DHT22;3687;47.648;8.204;2022-07-01T13:39:15;23.20;96.00
7292;DHT22;3687;47.648;8.204;2022-07-01T13:41:41;23.80;95.80
7292;DHT22;3687;47.648;8.204;2022-07-01T13:44:06;23.60;95.00
7292;DHT22;3687;47.648;8.204;2022-07-01T13:46:32;24.40;95.20
7292;DHT22;3687;47.648;8.204;2022-07-01T13:48:58;24.40;94.60
7292;DHT22;3687;47.648;8.204;2022-07-01T13:51:23;25.30;93.70
7292;DHT22;3687;47.648;8.204;2022-07-01T13:53:49;24.70;92.70
7292;DHT22;3687;47.648;8.204;2022-07-01T13:56:14;24.00;93.10
7292;DHT22;3687;47.648;8.204;2022-07-01T13:58:40;24.20;94.10
7292;DHT22;3687;47.648;8.204;2022-07-01T14:01:05;24.80;92.90
7292;DHT22;3687;47.648;8.204;2022-07-01T14:03:31;25.10;92.60
7292;DHT22;3687;47.648;8.204;2022-07-01T14:05:57;24.90;91.50
7292;DHT22;3687;47.648;8.204;2022-07-01T14:08:22;24.30;92.50
7292;DHT22;3687;47.648;8.204;2022-07-01T14:10:48;24.10;92.50
7292;DHT22;3687;47.648;8.204;2022-07-01T14:13:13;24.20;92.80
7292;DHT22;3687;47.648;8.204;2022-07-01T14:15:39;24.10;92.90
7292;DHT22;3687;47.648;8.204;2022-07-01T14:18:04;24.10;92.40
7292;DHT22;3687;47.648;8.204;2022-07-01T14:20:30;23.90;92.30
7292;DHT22;3687;47.648;8.204;2022-07-01T14:22:56;23.80;92.30
7292;DHT22;3687;47.648;8.204;2022-07-01T14:25:22;23.80;92.40
7292;DHT22;3687;47.648;8.204;2022-07-01T14:27:48;23.50;91.90
7292;DHT22;3687;47.648;8.204;2022-07-01T14:30:14;23.30;92.70
7292;DHT22;3687;47.648;8.204;2022-07-01T14:32:41;23.20;92.00
7292;DHT22;3687;47.648;8.204;2022-07-01T14:35:07;23.30;92.90
7292;DHT22;3687;47.648;8.204;2022-07-01T14:37:33;24.00;92.50
7292;DHT22;3687;47.648;8.204;2022-07-01T14:39:58;25.20;91.90
7292;DHT22;3687;47.648;8.204;2022-07-01T14:42:25;26.00;90.50
7292;DHT22;3687;47.648;8.204;2022-07-01T14:44:51;26.50;89.40
7292;DHT22;3687;47.648;8.204;2022-07-01T14:47:18;26.80;88.50
7292;DHT22;3687;47.648;8.204;2022-07-01T14:49:43;26.50;87.70
7292;DHT22;3687;47.648;8.204;2022-07-01T14:52:10;26.10;87.20
7292;DHT22;3687;47.648;8.204;2022-07-01T14:54:37;27.00;86.60
7292;DHT22;3687;47.648;8.204;2022-07-01T14:57:04;27.10;85.40
7292;DHT22;3687;47.648;8.204;2022-07-01T14:59:30;27.30;84.40
7292;DHT22;3687;47.648;8.204;2022-07-01T15:01:55;26.90;83.50
7292;DHT22;3687;47.648;8.204;2022-07-01T15:04:26;26.30;83.60
7292;DHT22;3687;47.648;8.204;2022-07-01T15:06:51;25.60;87.60
7292;DHT22;3687;47.648;8.204;2022-07-01T15:09:17;25.30;86.80
7292;DHT22;3687;47.648;8.204;2022-07-01T15:11:47;24.70;88.60
7292;DHT22;3687;47.648;8.204;2022-07-01T15:14:13;25.00;89.50
7292;DHT22;3687;47.648;8.204;2022-07-01T15:16:38;26.30;87.10
7292;DHT22;3687;47.648;8.204;2022-07-01T15:19:04;27.70;85.70
7292;DHT22;3687;47.648;8.204;2022-07-01T15:21:30;27.70;81.40
7292;DHT22;3687;47.648;8.204;2022-07-01T15:23:55;27.80;81.60
7292;DHT22;3687;47.648;8.204;2022-07-01T15:26:21;28.80;80.60
7292;DHT22;3687;47.648;8.204;2022-07-01T15:28:47;28.60;79.40
7292;DHT22;3687;47.648;8.204;2022-07-01T15:31:12;28.40;77.90
7292;DHT22;3687;47.648;8.204;2022-07-01T15:33:38;28.80;78.60
7292;DHT22;3687;47.648;8.204;2022-07-01T15:36:04;29.70;75.70
7292;DHT22;3687;47.648;8.204;2022-07-01T15:38:30;29.20;74.70
7292;DHT22;3687;47.648;8.204;2022-07-01T15:40:56;28.70;76.00
7292;DHT22;3687;47.648;8.204;2022-07-01T15:43:22;29.60;74.00
7292;DHT22;3687;47.648;8.204;2022-07-01T15:45:47;29.10;75.50
7292;DHT22;3687;47.648;8.204;2022-07-01T15:48:13;29.00;74.90
7292;DHT22;3687;47.648;8.204;2022-07-01T15:50:40;28.40;73.90
7292;DHT22;3687;47.648;8.204;2022-07-01T15:53:07;28.40;74.20
7292;DHT22;3687;47.648;8.204;2022-07-01T15:55:34;28.40;73.70
7292;DHT22;3687;47.648;8.204;2022-07-01T15:58:01;27.30;75.60
7292;DHT22;3687;47.648;8.204;2022-07-01T16:00:27;27.20;76.70
7292;DHT22;3687;47.648;8.204;2022-07-01T16:02:53;28.20;76.30
7292;DHT22;3687;47.648;8.204;2022-07-01T16:05:19;27.20;75.30
7292;DHT22;3687;47.648;8.204;2022-07-01T16:07:45;26.40;77.10
7292;DHT22;3687;47.648;8.204;2022-07-01T16:13:15;27.20;77.10
7292;DHT22;3687;47.648;8.204;2022-07-01T16:15:45;26.60;78.20
7292;DHT22;3687;47.648;8.204;2022-07-01T16:18:12;25.60;78.40
7292;DHT22;3687;47.648;8.204;2022-07-01T16:20:46;25.70;78.90
7292;DHT22;3687;47.648;8.204;2022-07-01T16:23:14;26.20;78.20
7292;DHT22;3687;47.648;8.204;2022-07-01T16:25:45;26.90;77.30
7292;DHT22;3687;47.648;8.204;2022-07-01T16:28:11;26.40;79.10
7292;DHT22;3687;47.648;8.204;2022-07-01T16:30:38;25.90;78.60
7292;DHT22;3687;47.648;8.204;2022-07-01T16:33:05;25.70;79.20
7292;DHT22;3687;47.648;8.204;2022-07-01T16:35:55;25.90;79.70
7292;DHT22;3687;47.648;8.204;2022-07-01T16:38:31;26.80;77.70